createdAt,value
2022-10-16T00:00:38.412Z,17.39
2022-10-16T00:01:38.405Z,17.39
2022-10-16T00:02:38.444Z,17.40
2022-10-16T00:03:38.374Z,17.40
2022-10-16T00:04:38.366Z,17.40
2022-10-16T00:05:38.354Z,17.40
2022-10-16T00:06:38.356Z,17.40
2022-10-16T00:07:38.326Z,17.40
2022-10-16T00:08:38.327Z,17.39
2022-10-16T00:09:38.314Z,17.39
2022-10-16T00:10:38.316Z,17.39
2022-10-16T00:11:38.276Z,17.39
2022-10-16T00:12:38.286Z,17.39
2022-10-16T00:13:38.284Z,17.38
2022-10-16T00:14:38.275Z,17.39
2022-10-16T00:15:38.267Z,17.40
2022-10-16T00:16:38.247Z,17.40
2022-10-16T00:17:38.227Z,17.40
2022-10-16T00:18:38.224Z,17.40
2022-10-16T00:19:38.217Z,17.38
2022-10-16T00:20:38.185Z,17.38
2022-10-16T00:21:38.170Z,17.38
2022-10-16T00:22:38.180Z,17.38
2022-10-16T00:23:38.150Z,17.36
2022-10-16T00:24:38.146Z,17.38
2022-10-16T00:25:38.127Z,17.36
2022-10-16T00:26:38.119Z,17.36
2022-10-16T00:27:38.130Z,17.36
2022-10-16T00:28:38.172Z,17.35
2022-10-16T00:29:38.081Z,17.33
2022-10-16T00:30:38.099Z,17.35
2022-10-16T00:31:38.061Z,17.35
2022-10-16T00:32:38.073Z,17.33
2022-10-16T00:33:38.061Z,17.33
2022-10-16T00:34:38.040Z,17.32
2022-10-16T00:35:38.025Z,17.30
2022-10-16T00:36:38.013Z,17.32
2022-10-16T00:37:38.031Z,17.32
2022-10-16T00:38:38.002Z,17.32
2022-10-16T00:39:37.993Z,17.30
2022-10-16T00:40:38.005Z,17.30
2022-10-16T00:41:37.954Z,17.30
2022-10-16T00:42:37.964Z,17.30
2022-10-16T00:43:37.963Z,17.32
2022-10-16T00:44:37.943Z,17.32
2022-10-16T00:45:37.939Z,17.35
2022-10-16T00:46:37.915Z,17.32
2022-10-16T00:47:37.925Z,17.32
2022-10-16T00:48:37.885Z,17.32
2022-10-16T00:49:37.885Z,17.32
2022-10-16T00:50:37.887Z,17.32
2022-10-16T00:51:37.850Z,17.33
2022-10-16T00:52:37.863Z,17.32
2022-10-16T00:53:37.827Z,17.33
2022-10-16T00:54:37.828Z,17.30
2022-10-16T00:55:41.653Z,17.28
2022-10-16T00:56:37.817Z,17.27
2022-10-16T00:57:37.789Z,17.25
2022-10-16T00:58:37.789Z,17.25
2022-10-16T00:59:37.797Z,17.24
2022-10-16T01:00:37.758Z,17.24
2022-10-16T01:01:37.831Z,17.22
2022-10-16T01:02:37.749Z,17.21
2022-10-16T01:03:37.765Z,17.21
2022-10-16T01:04:37.727Z,17.20
2022-10-16T01:05:37.730Z,17.20
2022-10-16T01:06:37.725Z,17.21
2022-10-16T01:07:37.700Z,17.20
2022-10-16T01:08:37.691Z,17.20
2022-10-16T01:09:37.660Z,17.20
2022-10-16T01:10:37.663Z,17.18
2022-10-16T01:11:37.654Z,17.17
2022-10-16T01:12:38.750Z,17.17
2022-10-16T01:13:37.644Z,17.17
2022-10-16T01:14:37.614Z,17.17
2022-10-16T01:16:37.615Z,17.17
2022-10-16T01:17:37.596Z,17.15
2022-10-16T01:18:37.595Z,17.17
2022-10-16T01:19:37.576Z,17.15
2022-10-16T01:20:37.576Z,17.15
2022-10-16T01:21:37.585Z,17.15
2022-10-16T01:22:37.579Z,17.15
2022-10-16T01:23:37.549Z,17.15
2022-10-16T01:24:37.668Z,17.15
2022-10-16T01:25:37.527Z,17.15
2022-10-16T01:26:37.518Z,17.15
2022-10-16T01:27:37.487Z,17.15
2022-10-16T01:28:37.547Z,17.14
2022-10-16T01:29:37.479Z,17.14
2022-10-16T01:30:37.480Z,17.15
2022-10-16T01:31:37.440Z,17.14
2022-10-16T01:32:37.430Z,17.14
2022-10-16T01:33:37.459Z,17.14
2022-10-16T01:34:37.420Z,17.12
2022-10-16T01:35:37.421Z,17.10
2022-10-16T01:36:37.390Z,17.10
2022-10-16T01:37:37.400Z,17.10
2022-10-16T01:38:37.381Z,17.10
2022-10-16T01:39:37.385Z,17.10
2022-10-16T01:40:37.377Z,17.09
2022-10-16T01:41:37.342Z,17.09
2022-10-16T01:42:37.329Z,17.07
2022-10-16T01:43:37.335Z,17.09
2022-10-16T01:44:37.313Z,17.07
2022-10-16T01:45:37.302Z,17.07
2022-10-16T01:46:37.284Z,17.07
2022-10-16T01:47:37.311Z,17.06
2022-10-16T01:48:37.287Z,17.06
2022-10-16T01:49:37.272Z,17.05
2022-10-16T01:50:37.253Z,17.07
2022-10-16T01:51:37.244Z,17.07
2022-10-16T01:52:37.244Z,17.06
2022-10-16T01:53:37.234Z,17.06
2022-10-16T01:54:37.214Z,17.07
2022-10-16T01:55:37.225Z,17.03
2022-10-16T01:56:37.179Z,17.05
2022-10-16T01:57:37.199Z,17.05
2022-10-16T01:58:37.166Z,17.05
2022-10-16T01:59:37.166Z,17.03
2022-10-16T02:00:37.164Z,17.02
2022-10-16T02:01:37.147Z,17.03
2022-10-16T02:02:37.114Z,17.03
2022-10-16T02:03:37.107Z,17.02
2022-10-16T02:04:37.098Z,17.03
2022-10-16T02:05:37.098Z,17.03
2022-10-16T02:06:37.088Z,17.03
2022-10-16T02:07:37.103Z,17.03
2022-10-16T02:08:37.059Z,17.03
2022-10-16T02:09:37.050Z,17.00
2022-10-16T02:10:37.048Z,17.02
2022-10-16T02:11:37.048Z,17.02
2022-10-16T02:12:37.039Z,17.02
2022-10-16T02:13:37.002Z,17.02
2022-10-16T02:14:36.990Z,17.02
2022-10-16T02:15:36.981Z,17.00
2022-10-16T02:16:36.981Z,17.00
2022-10-16T02:17:36.971Z,17.02
2022-10-16T02:18:36.949Z,17.02
2022-10-16T02:20:36.923Z,17.02
2022-10-16T02:21:36.932Z,17.00
2022-10-16T02:22:36.919Z,16.99
2022-10-16T02:23:36.901Z,17.00
2022-10-16T02:24:36.901Z,17.00
2022-10-16T02:25:36.892Z,16.99
2022-10-16T02:26:36.863Z,17.02
2022-10-16T02:27:36.852Z,17.00
2022-10-16T02:28:36.975Z,17.00
2022-10-16T02:29:36.834Z,17.00
2022-10-16T02:30:36.841Z,17.02
2022-10-16T02:31:36.815Z,17.00
2022-10-16T02:32:36.825Z,17.00
2022-10-16T02:33:36.795Z,17.00
2022-10-16T02:34:36.795Z,16.99
2022-10-16T02:35:36.775Z,16.99
2022-10-16T02:36:36.768Z,16.99
2022-10-16T02:37:36.795Z,16.99
2022-10-16T02:38:36.737Z,16.99
2022-10-16T02:39:36.736Z,16.98
2022-10-16T02:40:36.734Z,16.98
2022-10-16T02:41:36.716Z,16.98
2022-10-16T02:42:36.687Z,16.98
2022-10-16T02:43:36.719Z,16.95
2022-10-16T02:44:36.668Z,16.95
2022-10-16T02:45:36.680Z,16.98
2022-10-16T02:46:36.666Z,16.96
2022-10-16T02:47:36.648Z,16.95
2022-10-16T02:48:36.648Z,16.95
2022-10-16T02:49:36.664Z,16.92
2022-10-16T02:50:36.619Z,16.91
2022-10-16T02:51:36.618Z,16.91
2022-10-16T02:52:36.589Z,16.91
2022-10-16T02:53:36.590Z,16.91
2022-10-16T02:54:36.581Z,16.90
2022-10-16T02:55:36.584Z,16.90
2022-10-16T02:56:36.549Z,16.90
2022-10-16T02:57:36.540Z,16.88
2022-10-16T02:58:36.542Z,16.87
2022-10-16T02:59:36.542Z,16.85
2022-10-16T03:00:36.511Z,16.87
2022-10-16T03:01:37.009Z,16.87
2022-10-16T03:02:36.486Z,16.87
2022-10-16T03:03:36.502Z,16.87
2022-10-16T03:04:36.470Z,16.85
2022-10-16T03:05:36.472Z,16.84
2022-10-16T03:06:36.490Z,16.84
2022-10-16T03:07:36.433Z,16.84
2022-10-16T03:08:36.434Z,16.82
2022-10-16T03:09:36.486Z,16.81
2022-10-16T03:10:36.403Z,16.81
2022-10-16T03:11:36.404Z,16.80
2022-10-16T03:12:36.377Z,16.80
2022-10-16T03:13:36.394Z,16.80
2022-10-16T03:14:36.375Z,16.78
2022-10-16T03:15:36.373Z,16.78
2022-10-16T03:16:36.334Z,16.77
2022-10-16T03:17:36.346Z,16.77
2022-10-16T03:18:36.332Z,16.75
2022-10-16T03:19:36.337Z,16.75
2022-10-16T03:20:36.306Z,16.75
2022-10-16T03:21:36.286Z,16.75
2022-10-16T03:22:36.275Z,16.73
2022-10-16T03:23:36.269Z,16.73
2022-10-16T03:24:36.284Z,16.73
2022-10-16T03:25:36.258Z,16.72
2022-10-16T03:26:36.227Z,16.72
2022-10-16T03:27:36.347Z,16.72
2022-10-16T03:28:36.245Z,16.69
2022-10-16T03:29:36.218Z,16.69
2022-10-16T03:30:36.188Z,16.70
2022-10-16T03:31:36.215Z,16.70
2022-10-16T03:33:36.198Z,16.69
2022-10-16T03:34:36.162Z,16.67
2022-10-16T03:35:36.168Z,16.67
2022-10-16T03:36:36.139Z,16.67
2022-10-16T03:37:36.127Z,16.65
2022-10-16T03:38:36.110Z,16.66
2022-10-16T03:39:36.110Z,16.66
2022-10-16T03:40:36.101Z,16.63
2022-10-16T03:41:36.111Z,16.63
2022-10-16T03:42:36.068Z,16.63
2022-10-16T03:43:36.051Z,16.62
2022-10-16T03:44:36.041Z,16.63
2022-10-16T03:45:36.050Z,16.63
2022-10-16T03:46:36.029Z,16.63
2022-10-16T03:47:36.032Z,16.62
2022-10-16T03:48:36.031Z,16.62
2022-10-16T03:49:35.993Z,16.62
2022-10-16T03:50:35.974Z,16.60
2022-10-16T03:51:35.986Z,16.60
2022-10-16T03:52:35.975Z,16.59
2022-10-16T03:53:35.964Z,16.59
2022-10-16T03:54:35.941Z,16.59
2022-10-16T03:55:35.935Z,16.57
2022-10-16T03:56:35.913Z,16.54
2022-10-16T03:57:35.925Z,16.54
2022-10-16T03:58:35.906Z,16.54
2022-10-16T03:59:35.885Z,16.54
2022-10-16T04:00:35.894Z,16.54
2022-10-16T04:01:35.925Z,16.52
2022-10-16T04:02:35.937Z,16.51
2022-10-16T04:03:35.847Z,16.51
2022-10-16T04:04:35.853Z,16.51
2022-10-16T04:05:35.856Z,16.48
2022-10-16T04:06:35.825Z,16.48
2022-10-16T04:07:35.806Z,16.50
2022-10-16T04:08:35.806Z,16.50
2022-10-16T04:09:35.789Z,16.48
2022-10-16T04:10:35.788Z,16.48
2022-10-16T04:11:35.797Z,16.47
2022-10-16T04:12:35.758Z,16.48
2022-10-16T04:13:35.737Z,16.47
2022-10-16T04:14:35.732Z,16.47
2022-10-16T04:15:35.760Z,16.44
2022-10-16T04:16:35.717Z,16.44
2022-10-16T04:17:35.689Z,16.42
2022-10-16T04:18:35.700Z,16.42
2022-10-16T04:19:35.680Z,16.42
2022-10-16T04:20:35.680Z,16.41
2022-10-16T04:21:35.660Z,16.41
2022-10-16T04:22:35.653Z,16.41
2022-10-16T04:23:35.630Z,16.41
2022-10-16T04:24:35.642Z,16.42
2022-10-16T04:25:35.622Z,16.41
2022-10-16T04:26:35.622Z,16.40
2022-10-16T04:27:35.613Z,16.40
2022-10-16T04:28:35.653Z,16.36
2022-10-16T04:29:35.573Z,16.37
2022-10-16T04:30:35.572Z,16.37
2022-10-16T04:31:35.543Z,16.37
2022-10-16T04:32:35.555Z,16.36
2022-10-16T04:33:35.553Z,16.36
2022-10-16T04:34:35.514Z,16.36
2022-10-16T04:35:35.514Z,16.34
2022-10-16T04:36:35.517Z,16.34
2022-10-16T04:37:35.474Z,16.34
2022-10-16T04:38:35.517Z,16.34
2022-10-16T04:39:35.495Z,16.34
2022-10-16T04:40:35.460Z,16.34
2022-10-16T04:41:35.437Z,16.33
2022-10-16T04:42:35.446Z,16.34
2022-10-16T04:43:35.448Z,16.32
2022-10-16T04:44:35.417Z,16.34
2022-10-16T04:45:35.440Z,16.33
2022-10-16T04:46:35.387Z,16.32
2022-10-16T04:47:35.385Z,16.32
2022-10-16T04:48:35.577Z,16.32
2022-10-16T04:49:35.356Z,16.30
2022-10-16T04:50:35.368Z,16.32
2022-10-16T04:51:35.360Z,16.33
2022-10-16T04:53:35.318Z,16.32
2022-10-16T04:54:35.317Z,16.30
2022-10-16T04:55:35.309Z,16.32
2022-10-16T04:56:35.287Z,16.30
2022-10-16T04:57:35.310Z,16.30
2022-10-16T04:58:35.282Z,16.29
2022-10-16T04:59:35.267Z,16.30
2022-10-16T05:00:35.241Z,16.30
2022-10-16T05:01:35.250Z,16.30
2022-10-16T05:02:35.303Z,16.29
2022-10-16T05:03:35.226Z,16.32
2022-10-16T05:04:35.201Z,16.30
2022-10-16T05:05:35.191Z,16.29
2022-10-16T05:06:35.189Z,16.30
2022-10-16T05:07:35.190Z,16.30
2022-10-16T05:08:35.221Z,16.29
2022-10-16T05:09:35.143Z,16.27
2022-10-16T05:10:35.153Z,16.27
2022-10-16T05:11:35.142Z,16.29
2022-10-16T05:12:35.141Z,16.30
2022-10-16T05:13:35.152Z,16.29
2022-10-16T05:14:35.094Z,16.29
2022-10-16T05:15:35.093Z,16.29
2022-10-16T05:16:35.092Z,16.27
2022-10-16T05:17:35.066Z,16.27
2022-10-16T05:18:35.072Z,16.26
2022-10-16T05:19:35.045Z,16.25
2022-10-16T05:20:35.055Z,16.26
2022-10-16T05:21:35.035Z,16.26
2022-10-16T05:22:35.027Z,16.27
2022-10-16T05:23:35.015Z,16.27
2022-10-16T05:24:35.056Z,16.23
2022-10-16T05:25:34.997Z,16.26
2022-10-16T05:26:34.978Z,16.26
2022-10-16T05:27:34.967Z,16.25
2022-10-16T05:28:34.987Z,16.26
2022-10-16T05:29:34.967Z,16.25
2022-10-16T05:30:34.928Z,16.26
2022-10-16T05:31:34.921Z,16.25
2022-10-16T05:32:34.918Z,16.23
2022-10-16T05:33:34.898Z,16.23
2022-10-16T05:34:34.887Z,16.25
2022-10-16T05:35:34.898Z,16.23
2022-10-16T05:36:34.877Z,16.22
2022-10-16T05:37:34.869Z,16.18
2022-10-16T05:38:34.859Z,16.22
2022-10-16T05:39:35.112Z,16.18
2022-10-16T05:40:34.839Z,16.22
2022-10-16T05:41:34.807Z,16.18
2022-10-16T05:42:34.800Z,16.16
2022-10-16T05:43:34.781Z,16.16
2022-10-16T05:45:34.771Z,16.14
2022-10-16T05:46:34.771Z,16.13
2022-10-16T05:47:34.761Z,16.13
2022-10-16T05:48:34.760Z,16.11
2022-10-16T05:49:37.809Z,16.11
2022-10-16T05:50:35.742Z,16.11
2022-10-16T05:51:34.701Z,16.11
2022-10-16T05:52:34.712Z,16.11
2022-10-16T05:53:34.741Z,16.11
2022-10-16T05:54:34.675Z,16.13
2022-10-16T05:55:34.683Z,16.13
2022-10-16T05:56:34.654Z,16.14
2022-10-16T05:57:34.653Z,16.14
2022-10-16T05:58:34.654Z,16.14
2022-10-16T05:59:34.634Z,16.16
2022-10-16T06:00:34.636Z,16.14
2022-10-16T06:01:34.625Z,16.14
2022-10-16T06:02:34.615Z,16.16
2022-10-16T06:03:34.585Z,16.16
2022-10-16T06:04:34.596Z,16.17
2022-10-16T06:05:34.564Z,16.17
2022-10-16T06:06:34.555Z,16.17
2022-10-16T06:07:34.547Z,16.17
2022-10-16T06:08:34.527Z,16.22
2022-10-16T06:09:34.516Z,16.18
2022-10-16T06:10:34.547Z,16.18
2022-10-16T06:11:34.497Z,16.22
2022-10-16T06:12:34.497Z,16.23
2022-10-16T06:13:34.495Z,16.25
2022-10-16T06:14:34.503Z,16.23
2022-10-16T06:15:34.518Z,16.23
2022-10-16T06:16:34.439Z,16.23
2022-10-16T06:17:34.446Z,16.25
2022-10-16T06:18:34.428Z,16.23
2022-10-16T06:19:34.409Z,16.25
2022-10-16T06:20:34.419Z,16.25
2022-10-16T06:21:34.478Z,16.25
2022-10-16T06:22:34.399Z,16.25
2022-10-16T06:23:34.433Z,16.25
2022-10-16T06:24:34.361Z,16.26
2022-10-16T06:25:34.342Z,16.25
2022-10-16T06:26:34.348Z,16.26
2022-10-16T06:27:34.342Z,16.27
2022-10-16T06:28:34.340Z,16.27
2022-10-16T06:29:34.312Z,16.27
2022-10-16T06:30:34.301Z,16.30
2022-10-16T06:31:34.411Z,16.30
2022-10-16T06:32:34.273Z,16.32
2022-10-16T06:33:34.272Z,16.34
2022-10-16T06:34:35.271Z,16.36
2022-10-16T06:35:34.243Z,16.36
2022-10-16T06:36:34.242Z,16.37
2022-10-16T06:37:34.224Z,16.40
2022-10-16T06:38:34.224Z,16.40
2022-10-16T06:39:34.195Z,16.40
2022-10-16T06:40:34.205Z,16.41
2022-10-16T06:41:34.244Z,16.41
2022-10-16T06:42:34.225Z,16.42
2022-10-16T06:43:34.153Z,16.44
2022-10-16T06:44:34.160Z,16.45
2022-10-16T06:45:34.138Z,16.48
2022-10-16T06:46:34.135Z,16.50
2022-10-16T06:47:34.116Z,16.51
2022-10-16T06:48:34.108Z,16.52
2022-10-16T06:49:34.134Z,16.54
2022-10-16T06:50:34.088Z,16.54
2022-10-16T06:51:35.090Z,16.54
2022-10-16T06:52:34.067Z,16.55
2022-10-16T06:53:39.469Z,16.57
2022-10-16T06:54:42.057Z,16.55
2022-10-16T06:55:35.038Z,16.55
2022-10-16T06:56:34.037Z,16.55
2022-10-16T06:57:34.025Z,16.59
2022-10-16T06:58:33.998Z,16.59
2022-10-16T06:59:34.043Z,16.60
2022-10-16T07:00:33.989Z,16.62
2022-10-16T07:01:33.968Z,16.62
2022-10-16T07:02:33.964Z,16.66
2022-10-16T07:03:33.961Z,16.69
2022-10-16T07:04:33.949Z,16.70
2022-10-16T07:05:33.950Z,16.75
2022-10-16T07:06:33.929Z,16.77
2022-10-16T07:07:33.901Z,16.81
2022-10-16T07:08:33.900Z,16.84
2022-10-16T07:09:33.901Z,16.87
2022-10-16T07:10:33.901Z,16.91
2022-10-16T07:11:33.861Z,16.95
2022-10-16T07:12:33.853Z,16.98
2022-10-16T07:13:33.942Z,17.02
2022-10-16T07:14:33.863Z,17.03
2022-10-16T07:15:33.814Z,17.06
2022-10-16T07:16:33.825Z,17.09
2022-10-16T07:17:33.792Z,17.09
2022-10-16T07:18:33.842Z,17.10
2022-10-16T07:19:34.584Z,17.09
2022-10-16T07:20:33.794Z,17.10
2022-10-16T07:21:33.764Z,17.10
2022-10-16T07:22:33.746Z,17.12
2022-10-16T07:23:33.744Z,17.10
2022-10-16T07:24:33.735Z,17.10
2022-10-16T07:25:33.727Z,17.12
2022-10-16T07:26:33.713Z,17.12
2022-10-16T07:27:33.720Z,17.10
2022-10-16T07:28:33.719Z,17.10
2022-10-16T07:29:33.726Z,17.10
2022-10-16T07:30:33.734Z,17.09
2022-10-16T07:31:33.647Z,17.09
2022-10-16T07:32:33.675Z,17.07
2022-10-16T07:33:33.626Z,17.07
2022-10-16T07:34:33.615Z,17.06
2022-10-16T07:35:33.597Z,17.07
2022-10-16T07:36:33.644Z,17.07
2022-10-16T07:37:33.577Z,17.06
2022-10-16T07:38:33.581Z,17.06
2022-10-16T07:39:33.617Z,17.07
2022-10-16T07:40:33.558Z,17.07
2022-10-16T07:41:33.536Z,17.10
2022-10-16T07:42:33.528Z,17.09
2022-10-16T07:43:33.510Z,17.09
2022-10-16T07:44:33.508Z,17.12
2022-10-16T07:45:33.519Z,17.14
2022-10-16T07:46:33.499Z,17.14
2022-10-16T07:47:33.472Z,17.15
2022-10-16T07:48:33.519Z,17.18
2022-10-16T07:49:33.461Z,17.22
2022-10-16T07:50:33.451Z,17.25
2022-10-16T07:51:33.460Z,17.28
2022-10-16T07:52:33.438Z,17.30
2022-10-16T07:53:33.420Z,17.35
2022-10-16T07:54:33.413Z,17.35
2022-10-16T07:55:33.382Z,17.38
2022-10-16T07:56:33.617Z,17.38
2022-10-16T07:57:33.400Z,17.40
2022-10-16T07:58:33.369Z,17.42
2022-10-16T07:59:33.350Z,17.45
2022-10-16T08:00:33.345Z,17.51
2022-10-16T08:01:33.536Z,17.51
2022-10-16T08:02:33.324Z,17.55
2022-10-16T08:03:33.302Z,17.58
2022-10-16T08:04:33.304Z,17.60
2022-10-16T08:05:33.274Z,17.63
2022-10-16T08:06:33.433Z,17.66
2022-10-16T08:07:33.254Z,17.73
2022-10-16T08:08:33.247Z,17.77
2022-10-16T08:09:33.225Z,17.81
2022-10-16T08:10:33.225Z,17.84
2022-10-16T08:11:33.216Z,17.89
2022-10-16T08:12:33.375Z,17.92
2022-10-16T08:13:33.221Z,17.95
2022-10-16T08:14:33.177Z,18.04
2022-10-16T08:15:33.187Z,18.10
2022-10-16T08:16:33.167Z,18.16
2022-10-16T08:17:33.169Z,18.20
2022-10-16T08:18:33.137Z,18.26
2022-10-16T08:19:33.137Z,18.34
2022-10-16T08:20:33.137Z,18.39
2022-10-16T08:21:33.118Z,18.47
2022-10-16T08:22:33.119Z,18.51
2022-10-16T08:23:33.079Z,18.54
2022-10-16T08:24:33.146Z,18.57
2022-10-16T08:25:33.069Z,18.59
2022-10-16T08:26:33.071Z,18.59
2022-10-16T08:27:33.040Z,18.62
2022-10-16T08:28:33.115Z,18.65
2022-10-16T08:29:33.020Z,18.69
2022-10-16T08:30:33.000Z,18.75
2022-10-16T08:31:33.001Z,18.78
2022-10-16T08:32:33.526Z,18.84
2022-10-16T08:33:32.982Z,18.90
2022-10-16T08:34:32.976Z,18.93
2022-10-16T08:35:32.983Z,18.97
2022-10-16T08:36:32.970Z,18.99
2022-10-16T08:37:32.945Z,19.02
2022-10-16T08:38:33.013Z,19.05
2022-10-16T08:39:32.931Z,19.05
2022-10-16T08:40:32.914Z,19.05
2022-10-16T08:41:32.893Z,19.05
2022-10-16T08:42:32.894Z,19.05
2022-10-16T08:43:32.864Z,19.06
2022-10-16T08:44:32.864Z,19.06
2022-10-16T08:45:32.864Z,19.09
2022-10-16T08:46:32.892Z,19.09
2022-10-16T08:47:32.827Z,19.10
2022-10-16T08:48:32.826Z,19.12
2022-10-16T08:49:32.886Z,19.13
2022-10-16T08:50:32.805Z,19.15
2022-10-16T08:51:32.791Z,19.15
2022-10-16T08:52:32.789Z,19.16
2022-10-16T08:53:32.756Z,19.23
2022-10-16T08:54:32.747Z,19.25
2022-10-16T08:55:32.759Z,19.30
2022-10-16T08:56:32.738Z,19.31
2022-10-16T08:57:32.725Z,19.31
2022-10-16T08:58:32.708Z,19.31
2022-10-16T08:59:32.727Z,19.31
2022-10-16T09:00:32.805Z,19.31
2022-10-16T09:01:32.703Z,19.34
2022-10-16T09:02:32.702Z,19.39
2022-10-16T09:03:32.661Z,19.42
2022-10-16T09:04:32.651Z,19.46
2022-10-16T09:05:32.642Z,19.52
2022-10-16T09:06:32.621Z,19.57
2022-10-16T09:07:32.667Z,19.61
2022-10-16T09:08:32.601Z,19.62
2022-10-16T09:09:32.610Z,19.61
2022-10-16T09:10:32.581Z,19.62
2022-10-16T09:11:32.576Z,19.64
2022-10-16T09:12:32.560Z,19.65
2022-10-16T09:13:32.586Z,19.67
2022-10-16T09:14:32.553Z,19.72
2022-10-16T09:15:32.532Z,19.78
2022-10-16T09:16:32.514Z,19.85
2022-10-16T09:17:32.522Z,19.92
2022-10-16T09:18:32.994Z,19.98
2022-10-16T09:19:32.764Z,20.02
2022-10-16T09:20:32.484Z,20.07
2022-10-16T09:21:32.465Z,20.13
2022-10-16T09:22:32.454Z,20.16
2022-10-16T09:23:32.448Z,20.15
2022-10-16T09:24:32.435Z,20.15
2022-10-16T09:25:32.496Z,20.17
2022-10-16T09:26:32.426Z,20.19
2022-10-16T09:27:32.416Z,20.19
2022-10-16T09:28:32.445Z,20.20
2022-10-16T09:29:32.377Z,20.22
2022-10-16T09:30:32.367Z,20.23
2022-10-16T09:31:32.488Z,20.26
2022-10-16T09:32:32.358Z,20.30
2022-10-16T09:33:32.357Z,20.34
2022-10-16T09:34:32.327Z,20.34
2022-10-16T09:35:32.318Z,20.30
2022-10-16T09:36:32.309Z,20.30
2022-10-16T09:37:32.299Z,20.30
2022-10-16T09:38:32.310Z,20.33
2022-10-16T09:39:32.270Z,20.34
2022-10-16T09:40:32.260Z,20.35
2022-10-16T09:41:32.249Z,20.35
2022-10-16T09:42:32.251Z,20.37
2022-10-16T09:43:32.221Z,20.40
2022-10-16T09:44:32.277Z,20.41
2022-10-16T09:45:32.912Z,20.41
2022-10-16T09:46:32.683Z,20.44
2022-10-16T09:47:32.211Z,20.46
2022-10-16T09:48:32.183Z,20.50
2022-10-16T09:49:32.173Z,20.54
2022-10-16T09:50:32.152Z,20.57
2022-10-16T09:51:32.161Z,20.61
2022-10-16T09:52:32.150Z,20.68
2022-10-16T09:53:32.132Z,20.73
2022-10-16T09:54:32.103Z,20.79
2022-10-16T09:55:32.123Z,20.87
2022-10-16T09:56:32.094Z,20.93
2022-10-16T09:57:32.102Z,21.00
2022-10-16T09:58:32.083Z,21.09
2022-10-16T09:59:32.095Z,21.16
2022-10-16T10:00:32.055Z,21.22
2022-10-16T10:01:32.058Z,21.30
2022-10-16T10:02:32.036Z,21.37
2022-10-16T10:03:32.019Z,21.49
2022-10-16T10:04:32.277Z,21.56
2022-10-16T10:05:32.027Z,21.64
2022-10-16T10:06:31.988Z,21.70
2022-10-16T10:07:31.977Z,21.73
2022-10-16T10:08:31.958Z,21.79
2022-10-16T10:09:31.979Z,21.82
2022-10-16T10:10:31.958Z,21.90
2022-10-16T10:11:31.937Z,21.94
2022-10-16T10:12:32.334Z,22.02
2022-10-16T10:13:31.909Z,22.08
2022-10-16T10:14:31.911Z,22.12
2022-10-16T10:15:31.908Z,22.17
2022-10-16T10:16:31.890Z,22.23
2022-10-16T10:17:31.876Z,22.27
2022-10-16T10:18:31.867Z,22.31
2022-10-16T10:19:33.013Z,22.35
2022-10-16T10:20:31.873Z,22.41
2022-10-16T10:21:31.831Z,22.45
2022-10-16T10:22:31.872Z,22.46
2022-10-16T10:23:31.803Z,22.49
2022-10-16T10:24:31.784Z,22.54
2022-10-16T10:25:31.795Z,22.59
2022-10-16T10:26:32.962Z,22.61
2022-10-16T10:27:31.773Z,22.69
2022-10-16T10:28:31.791Z,22.75
2022-10-16T10:29:31.755Z,22.85
2022-10-16T10:30:31.744Z,22.94
2022-10-16T10:31:31.725Z,23.06
2022-10-16T10:32:31.715Z,23.15
2022-10-16T10:33:32.537Z,23.23
2022-10-16T10:34:31.723Z,23.38
2022-10-16T10:35:31.687Z,23.52
2022-10-16T10:36:31.857Z,23.64
2022-10-16T10:37:31.676Z,23.77
2022-10-16T10:38:31.637Z,23.84
2022-10-16T10:39:31.627Z,23.93
2022-10-16T10:40:31.723Z,23.96
2022-10-16T10:41:32.034Z,24.04
2022-10-16T10:42:31.616Z,24.12
2022-10-16T10:43:31.659Z,24.19
2022-10-16T10:44:31.588Z,24.29
2022-10-16T10:45:31.569Z,24.36
2022-10-16T10:46:31.560Z,24.42
2022-10-16T10:47:31.580Z,24.49
2022-10-16T10:48:31.543Z,24.55
2022-10-16T10:49:31.539Z,24.60
2022-10-16T10:50:31.522Z,24.59
2022-10-16T10:51:31.520Z,24.60
2022-10-16T10:52:31.501Z,24.61
2022-10-16T10:53:31.491Z,24.59
2022-10-16T10:54:31.491Z,24.52
2022-10-16T10:55:31.463Z,24.51
2022-10-16T10:56:31.463Z,24.45
2022-10-16T10:57:31.478Z,24.41
2022-10-16T10:58:34.981Z,24.44
2022-10-16T10:59:31.435Z,24.46
2022-10-16T11:00:31.414Z,24.52
2022-10-16T11:01:31.465Z,24.61
2022-10-16T11:02:31.384Z,24.64
2022-10-16T11:03:31.406Z,24.70
2022-10-16T11:04:31.404Z,24.77
2022-10-16T11:05:31.355Z,24.82
2022-10-16T11:06:31.409Z,24.87
2022-10-16T11:07:31.346Z,24.93
2022-10-16T11:08:31.327Z,24.99
2022-10-16T11:09:31.326Z,25.11
2022-10-16T11:10:31.297Z,25.14
2022-10-16T11:11:31.315Z,25.20
2022-10-16T11:12:31.288Z,25.24
2022-10-16T11:13:31.279Z,25.27
2022-10-16T11:14:31.272Z,25.29
2022-10-16T11:15:31.267Z,25.29
2022-10-16T11:16:31.249Z,25.27
2022-10-16T11:17:31.237Z,25.29
2022-10-16T11:18:31.222Z,25.35
2022-10-16T11:19:31.209Z,25.42
2022-10-16T11:20:31.203Z,25.53
2022-10-16T11:21:31.420Z,25.56
2022-10-16T11:22:31.184Z,25.66
2022-10-16T11:23:31.182Z,25.79
2022-10-16T11:24:31.182Z,25.97
2022-10-16T11:25:31.172Z,26.13
2022-10-16T11:26:31.133Z,26.31
2022-10-16T11:27:31.135Z,26.41
2022-10-16T11:28:31.849Z,26.50
2022-10-16T11:29:31.113Z,26.51
2022-10-16T11:30:31.095Z,26.50
2022-10-16T11:31:31.119Z,26.57
2022-10-16T11:32:31.065Z,26.68
2022-10-16T11:33:31.055Z,26.75
2022-10-16T11:34:34.160Z,26.71
2022-10-16T11:35:32.057Z,26.71
2022-10-16T11:36:31.025Z,26.73
2022-10-16T11:37:31.020Z,26.87
2022-10-16T11:38:31.037Z,26.97
2022-10-16T11:39:31.000Z,27.11
2022-10-16T11:40:30.999Z,27.23
2022-10-16T11:41:30.979Z,27.40
2022-10-16T11:42:30.958Z,27.52
2022-10-16T11:43:30.959Z,27.63
2022-10-16T11:44:30.962Z,27.88
2022-10-16T11:45:30.948Z,28.25
2022-10-16T11:46:30.921Z,28.83
2022-10-16T11:47:57.380Z,29.76
2022-10-16T11:48:31.919Z,30.45
2022-10-16T11:49:30.911Z,31.41
2022-10-16T11:50:30.891Z,32.50
2022-10-16T11:51:30.881Z,33.45
2022-10-16T11:52:30.863Z,33.90
2022-10-16T11:53:30.853Z,34.50
2022-10-16T11:54:30.864Z,34.91
2022-10-16T11:55:30.837Z,35.68
2022-10-16T11:56:30.825Z,36.90
2022-10-16T11:57:30.838Z,38.19
2022-10-16T11:58:30.804Z,38.92
2022-10-16T11:59:30.806Z,39.51
2022-10-16T12:00:30.788Z,40.25
2022-10-16T12:01:30.808Z,40.68
2022-10-16T12:02:30.768Z,40.94
2022-10-16T12:03:30.797Z,40.86
2022-10-16T12:04:30.748Z,41.00
2022-10-16T12:05:30.741Z,41.53
2022-10-16T12:06:30.728Z,42.24
2022-10-16T12:07:30.730Z,42.46
2022-10-16T12:08:30.718Z,42.41
2022-10-16T12:09:30.730Z,42.96
2022-10-16T12:10:30.739Z,43.70
2022-10-16T12:11:30.671Z,44.16
2022-10-16T12:12:33.052Z,44.34
2022-10-16T12:13:31.662Z,44.16
2022-10-16T12:14:30.673Z,44.74
2022-10-16T12:15:47.376Z,45.26
2022-10-16T12:16:31.613Z,44.97
2022-10-16T12:17:30.632Z,44.34
2022-10-16T12:18:30.626Z,43.18
2022-10-16T12:19:30.626Z,42.62
2022-10-16T12:20:30.586Z,43.02
2022-10-16T12:21:30.594Z,42.04
2022-10-16T12:22:30.558Z,40.26
2022-10-16T12:23:30.567Z,38.78
2022-10-16T12:24:30.592Z,37.58
2022-10-16T12:25:30.537Z,36.62
2022-10-16T12:26:30.528Z,35.71
2022-10-16T12:27:30.529Z,34.93
2022-10-16T12:28:30.570Z,34.37
2022-10-16T12:29:30.511Z,34.56
2022-10-16T12:30:33.599Z,35.34
2022-10-16T12:31:31.503Z,35.31
2022-10-16T12:32:47.388Z,35.17
2022-10-16T12:33:31.492Z,35.47
2022-10-16T12:34:30.468Z,36.82
2022-10-16T12:35:30.443Z,38.74
2022-10-16T12:36:30.453Z,38.52
2022-10-16T12:37:30.445Z,38.06
2022-10-16T12:38:30.417Z,37.46
2022-10-16T12:39:30.415Z,37.46
2022-10-16T12:40:30.388Z,38.25
2022-10-16T12:41:30.394Z,38.77
2022-10-16T12:42:30.627Z,39.51
2022-10-16T12:43:30.406Z,40.13
2022-10-16T12:44:30.366Z,39.50
2022-10-16T12:45:30.357Z,38.70
2022-10-16T12:46:30.343Z,38.74
2022-10-16T12:47:30.356Z,40.29
2022-10-16T12:48:37.081Z,41.38
2022-10-16T12:49:31.321Z,42.12
2022-10-16T12:50:30.310Z,43.06
2022-10-16T12:51:30.291Z,43.86
2022-10-16T12:52:30.338Z,44.28
2022-10-16T12:53:30.271Z,44.64
2022-10-16T12:54:30.302Z,44.94
2022-10-16T12:55:30.242Z,45.10
2022-10-16T12:56:30.325Z,45.19
2022-10-16T12:57:31.179Z,45.38